Time;durP1;ratioP1;P1;durP2;ratioP2;P2;SDS_P1;SDS_P2;PMS_P1;PMS_P2;Temp;Humidity;BMP_temperature;BMP_pressure;BME280_temperature;BME280_humidity;BME280_pressure;Samples;Min_cycle;Max_cycle;Signal;HPM_P1;HPM_P2
2022/07/21 00:01:12;;;;;;;3.80;2.72;;;22.30;83.10;;;;;;5051611;28;20573;-68
2022/07/21 00:03:39;;;;;;;3.88;2.67;;;22.30;83.30;;;;;;5046210;28;20224;-68
2022/07/21 00:06:07;;;;;;;2.42;2.22;;;22.30;83.40;;;;;;5054095;28;20570;-68
2022/07/21 00:08:34;;;;;;;2.60;2.20;;;22.20;83.60;;;;;;5053538;28;20210;-68
2022/07/21 00:11:01;;;;;;;2.17;1.98;;;22.20;83.80;;;;;;5052654;28;20217;-69
2022/07/21 00:13:29;;;;;;;4.05;2.58;;;22.20;84.00;;;;;;5052409;28;20202;-69
2022/07/21 00:15:55;;;;;;;2.58;2.38;;;22.20;84.20;;;;;;5041967;28;20657;-69
2022/07/21 00:18:22;;;;;;;4.57;2.72;;;22.20;84.20;;;;;;5053513;28;20210;-67
2022/07/21 00:20:49;;;;;;;2.95;2.20;;;22.10;84.50;;;;;;5051211;28;20206;-68
2022/07/21 00:23:16;;;;;;;4.22;2.58;;;22.00;84.70;;;;;;5042512;28;20673;-68
2022/07/21 00:25:43;;;;;;;5.60;2.80;;;22.00;84.90;;;;;;5048419;28;20237;-68
2022/07/21 00:28:10;;;;;;;2.75;2.47;;;22.00;85.30;;;;;;5052988;28;20202;-68
2022/07/21 00:30:38;;;;;;;5.40;2.70;;;21.90;85.30;;;;;;5053025;28;20226;-68
2022/07/21 00:33:05;;;;;;;5.13;2.40;;;21.90;85.70;;;;;;5051325;28;20213;-69
2022/07/21 00:35:32;;;;;;;9.23;2.88;;;21.90;85.90;;;;;;5053622;28;20202;-68
2022/07/21 00:37:58;;;;;;;6.95;3.03;;;21.90;86.00;;;;;;5039805;28;20221;-69
2022/07/21 00:40:25;;;;;;;6.20;3.08;;;21.90;86.30;;;;;;5050609;28;20237;-68
2022/07/21 00:42:52;;;;;;;3.75;2.85;;;21.80;86.50;;;;;;5051673;28;20309;-70
2022/07/21 00:45:19;;;;;;;3.85;2.90;;;21.80;86.70;;;;;;5052347;28;20214;-68
2022/07/21 00:47:47;;;;;;;6.05;2.72;;;21.90;87.00;;;;;;5051705;28;20696;-68
2022/07/21 00:50:16;;;;;;;4.38;2.70;;;21.80;87.20;;;;;;5051617;28;20254;-68
2022/07/21 00:52:43;;;;;;;5.07;2.92;;;21.80;87.30;;;;;;5051152;28;20681;-69
2022/07/21 00:55:14;;;;;;;4.20;3.03;;;21.70;87.10;;;;;;5053420;28;20218;-69
2022/07/21 00:57:41;;;;;;;3.25;2.90;;;21.70;87.10;;;;;;5039696;28;20214;-68
2022/07/21 01:00:11;;;;;;;3.10;2.60;;;21.70;86.50;;;;;;5051756;28;20262;-68
2022/07/21 01:02:38;;;;;;;4.57;2.40;;;21.60;86.90;;;;;;5051319;28;20209;-68
2022/07/21 01:05:14;;;;;;;3.75;2.33;;;21.60;86.90;;;;;;5045787;28;20206;-69
2022/07/21 01:07:41;;;;;;;3.10;2.90;;;21.60;87.00;;;;;;5052787;28;20205;-68
2022/07/21 01:10:09;;;;;;;3.42;2.85;;;21.60;87.00;;;;;;5048223;28;20225;-67
2022/07/21 01:12:36;;;;;;;5.47;2.97;;;21.50;88.30;;;;;;5052882;28;20211;-69
2022/07/21 01:15:04;;;;;;;4.93;3.00;;;21.50;87.80;;;;;;5053445;28;20201;-68
2022/07/21 01:17:31;;;;;;;4.25;2.75;;;21.50;88.20;;;;;;5051295;28;20576;-69
2022/07/21 01:19:58;;;;;;;3.22;2.92;;;21.50;88.40;;;;;;5036596;28;20301;-69
2022/07/21 01:22:26;;;;;;;2.80;2.53;;;21.50;88.60;;;;;;5048175;28;20217;-69
2022/07/21 01:24:53;;;;;;;3.13;2.70;;;21.50;88.70;;;;;;5051974;28;20202;-68
2022/07/21 01:27:20;;;;;;;3.67;2.80;;;21.50;88.80;;;;;;5039846;28;20664;-69
2022/07/21 01:29:46;;;;;;;3.22;2.78;;;21.50;88.80;;;;;;5040840;28;20217;-69
2022/07/21 01:32:13;;;;;;;3.45;2.50;;;21.40;88.80;;;;;;5052706;28;20226;-69
2022/07/21 01:34:40;;;;;;;5.82;2.67;;;21.50;88.90;;;;;;5053499;28;20574;-69
2022/07/21 01:37:07;;;;;;;3.33;2.60;;;21.40;88.60;;;;;;5050786;28;20213;-68
2022/07/21 01:42:19;;;;;;;8.65;3.05;;;21.40;88.40;;;;;;5040973;28;20201;-69
2022/07/21 01:44:45;;;;;;;5.10;2.67;;;21.40;88.60;;;;;;5041448;28;20655;-69
2022/07/21 01:47:12;;;;;;;6.05;3.10;;;21.20;88.60;;;;;;5047118;28;20679;-68
2022/07/21 01:49:39;;;;;;;4.18;2.60;;;21.20;88.80;;;;;;5043410;28;20574;-68
2022/07/21 01:52:07;;;;;;;5.88;2.60;;;21.20;89.10;;;;;;5049291;28;20248;-68
2022/07/21 01:54:35;;;;;;;4.55;2.88;;;21.20;89.20;;;;;;5051996;28;20210;-68
2022/07/21 01:57:02;;;;;;;3.17;2.70;;;21.20;89.20;;;;;;5053069;28;20217;-68
2022/07/21 01:59:29;;;;;;;2.78;2.58;;;21.10;89.40;;;;;;5047859;28;20221;-68
2022/07/21 02:01:56;;;;;;;4.30;2.72;;;21.10;89.60;;;;;;5052655;28;20221;-68
2022/07/21 02:04:22;;;;;;;3.75;2.55;;;21.10;89.90;;;;;;5052813;28;20198;-68
2022/07/21 02:06:49;;;;;;;4.47;3.00;;;21.00;89.80;;;;;;5051621;28;20214;-68
2022/07/21 02:09:16;;;;;;;4.57;2.95;;;21.00;90.00;;;;;;5049719;28;20221;-69
2022/07/21 02:11:44;;;;;;;2.92;2.47;;;21.00;90.10;;;;;;5056517;28;20229;-69
2022/07/21 02:14:11;;;;;;;4.78;2.90;;;20.90;90.20;;;;;;5056492;28;20205;-68
2022/07/21 02:16:37;;;;;;;2.80;2.60;;;20.90;90.30;;;;;;5057147;28;20213;-69
2022/07/21 02:19:04;;;;;;;3.03;2.65;;;20.90;90.40;;;;;;5056487;28;20228;-70
2022/07/21 02:21:31;;;;;;;3.17;2.63;;;20.90;90.50;;;;;;5047286;28;20209;-68
2022/07/21 02:23:58;;;;;;;5.55;3.03;;;20.90;90.50;;;;;;5056565;28;20244;-68
2022/07/21 02:26:25;;;;;;;5.93;3.00;;;20.80;90.50;;;;;;5054251;28;20221;-69
2022/07/21 02:28:53;;;;;;;3.83;2.72;;;20.80;90.50;;;;;;5056454;28;20213;-69
2022/07/21 02:31:20;;;;;;;3.85;2.80;;;20.80;90.50;;;;;;5049686;28;20222;-69
2022/07/21 02:33:47;;;;;;;3.20;2.17;;;20.80;90.50;;;;;;5056042;28;20214;-68
2022/07/21 02:36:13;;;;;;;3.22;2.88;;;20.70;90.50;;;;;;5055840;28;20209;-69
2022/07/21 02:38:40;;;;;;;2.40;2.20;;;20.70;90.50;;;;;;5056545;28;20665;-69
2022/07/21 02:41:07;;;;;;;3.38;2.58;;;20.70;90.50;;;;;;5050561;28;20202;-68
2022/07/21 02:43:34;;;;;;;3.00;2.20;;;20.70;90.50;;;;;;5055325;28;20205;-68
2022/07/21 02:46:02;;;;;;;2.83;2.53;;;20.70;90.50;;;;;;5055773;28;20570;-70
2022/07/21 02:48:28;;;;;;;4.82;3.08;;;20.70;90.50;;;;;;5056048;28;20252;-69
2022/07/21 02:50:55;;;;;;;2.92;2.50;;;20.70;90.50;;;;;;5054194;28;20237;-68
2022/07/21 02:53:23;;;;;;;6.07;2.40;;;20.70;90.60;;;;;;5049351;28;20544;-68
2022/07/21 02:55:52;;;;;;;2.83;2.13;;;20.70;90.60;;;;;;5055988;28;20256;-68
2022/07/21 02:58:21;;;;;;;2.70;2.22;;;20.70;90.60;;;;;;5048140;28;20209;-69
2022/07/21 03:00:50;;;;;;;3.13;2.50;;;20.60;90.60;;;;;;5055527;28;20202;-68
2022/07/21 03:03:18;;;;;;;2.55;2.10;;;20.60;90.70;;;;;;5050129;28;20697;-69
2022/07/21 03:05:45;;;;;;;2.55;2.30;;;20.60;90.60;;;;;;5053902;28;20206;-69
2022/07/21 03:08:12;;;;;;;2.83;2.45;;;20.50;90.50;;;;;;5054834;28;20202;-68
2022/07/21 03:10:40;;;;;;;4.72;2.45;;;20.60;90.50;;;;;;5054475;28;20217;-67
2022/07/21 03:13:09;;;;;;;3.70;2.20;;;20.60;90.50;;;;;;5054772;28;20206;-68
2022/07/21 03:15:36;;;;;;;3.10;2.10;;;20.70;90.50;;;;;;5054852;28;20213;-67
2022/07/21 03:18:04;;;;;;;2.92;2.17;;;20.70;90.40;;;;;;5055749;28;20596;-68
2022/07/21 03:20:34;;;;;;;5.85;2.20;;;20.70;90.30;;;;;;5045761;28;20298;-69
2022/07/21 03:23:01;;;;;;;2.20;2.00;;;20.70;90.30;;;;;;5048735;28;20202;-68
2022/07/21 03:25:29;;;;;;;3.60;2.45;;;20.70;90.30;;;;;;5055409;28;20233;-68
2022/07/21 03:27:56;;;;;;;2.35;2.15;;;20.80;90.20;;;;;;5055754;28;20216;-69
2022/07/21 03:30:23;;;;;;;5.28;2.10;;;20.80;90.20;;;;;;5054951;28;20609;-69
2022/07/21 03:32:51;;;;;;;4.60;2.00;;;20.80;90.20;;;;;;5052558;28;20226;-69
2022/07/21 03:35:18;;;;;;;2.40;2.17;;;20.80;90.20;;;;;;5055589;28;20202;-69
2022/07/21 03:37:48;;;;;;;7.25;2.35;;;20.90;90.20;;;;;;5054858;28;20681;-68
2022/07/21 03:40:17;;;;;;;3.58;2.08;;;20.90;90.00;;;;;;5055587;28;20639;-68
2022/07/21 03:42:44;;;;;;;2.10;1.90;;;21.00;90.00;;;;;;5054440;28;20236;-69
2022/07/21 03:45:11;;;;;;;2.38;2.05;;;21.00;89.40;;;;;;5050808;28;20205;-69
2022/07/21 03:47:38;;;;;;;2.97;2.20;;;21.10;89.10;;;;;;5054411;28;20248;-69
2022/07/21 03:50:07;;;;;;;2.58;2.10;;;21.10;88.90;;;;;;5048755;28;20221;-68
2022/07/21 03:52:33;;;;;;;4.57;2.20;;;21.10;88.60;;;;;;5041469;28;20815;-68
2022/07/21 03:55:14;;;;;;;2.78;1.73;;;21.20;88.50;;;;;;5051367;28;20224;-69
2022/07/21 03:57:45;;;;;;;2.05;1.75;;;21.20;88.40;;;;;;5052980;28;20632;-68
2022/07/21 04:00:15;;;;;;;2.63;1.85;;;21.20;87.70;;;;;;5055046;28;20680;-68
2022/07/21 04:02:43;;;;;;;2.50;1.83;;;21.20;87.50;;;;;;5040510;28;20198;-68
2022/07/21 04:05:11;;;;;;;4.18;2.17;;;21.20;87.60;;;;;;5054544;28;20206;-68
2022/07/21 04:07:40;;;;;;;4.05;1.90;;;21.20;87.70;;;;;;5054744;28;20638;-68
2022/07/21 04:10:09;;;;;;;2.35;1.63;;;21.20;87.20;;;;;;5053676;28;20248;-68
2022/07/21 04:12:36;;;;;;;2.63;1.88;;;21.20;86.60;;;;;;5054676;28;20230;-69
2022/07/21 04:15:04;;;;;;;4.82;2.33;;;21.30;86.70;;;;;;5054226;28;20264;-68
2022/07/21 04:17:31;;;;;;;2.40;1.98;;;21.40;86.40;;;;;;5050566;28;20202;-68
2022/07/21 04:19:57;;;;;;;2.20;2.00;;;21.40;85.80;;;;;;5054220;28;20209;-68
2022/07/21 04:22:24;;;;;;;2.72;1.70;;;21.50;85.50;;;;;;5053600;28;20194;-68
2022/07/21 04:24:51;;;;;;;2.67;2.13;;;21.50;84.90;;;;;;5052871;28;20206;-68
2022/07/21 04:27:19;;;;;;;2.75;2.10;;;21.50;84.40;;;;;;5053985;28;20678;-68
2022/07/21 04:29:46;;;;;;;4.05;1.40;;;21.50;84.30;;;;;;5048880;28;20213;-69
2022/07/21 04:32:13;;;;;;;2.28;1.50;;;21.50;84.00;;;;;;5054338;28;20225;-69
2022/07/21 04:34:40;;;;;;;2.85;1.60;;;21.60;83.30;;;;;;5054504;28;20576;-68
2022/07/21 04:37:06;;;;;;;3.55;1.50;;;21.60;83.30;;;;;;5053240;28;20206;-68
2022/07/21 04:39:33;;;;;;;5.00;1.90;;;21.60;83.20;;;;;;5054129;28;20202;-67
2022/07/21 04:42:00;;;;;;;3.60;1.95;;;21.70;83.20;;;;;;5054247;28;20193;-69
2022/07/21 04:44:28;;;;;;;1.52;1.42;;;21.70;83.00;;;;;;5050513;28;20218;-68
2022/07/21 04:46:55;;;;;;;4.80;1.85;;;21.70;82.80;;;;;;5053881;28;20250;-68
2022/07/21 04:49:22;;;;;;;2.15;1.83;;;21.80;82.70;;;;;;5052908;28;20682;-68
2022/07/21 04:51:48;;;;;;;3.45;1.83;;;21.80;82.50;;;;;;5053943;28;20225;-69
2022/07/21 04:54:15;;;;;;;5.20;1.98;;;21.80;82.30;;;;;;5052620;28;20216;-68
2022/07/21 04:56:43;;;;;;;2.83;1.65;;;21.80;82.10;;;;;;5052649;28;20210;-69
2022/07/21 04:59:10;;;;;;;2.97;1.70;;;21.90;81.90;;;;;;5052559;28;20206;-68
2022/07/21 05:01:40;;;;;;;5.55;1.80;;;21.90;82.00;;;;;;5042509;28;20210;-68
2022/07/21 05:04:07;;;;;;;2.63;1.70;;;22.00;81.60;;;;;;5052913;28;20206;-68
2022/07/21 05:06:34;;;;;;;2.30;1.52;;;22.00;81.30;;;;;;5053072;28;20210;-69
2022/07/21 05:09:01;;;;;;;2.88;1.60;;;22.10;81.00;;;;;;5053444;28;20229;-69
2022/07/21 05:11:28;;;;;;;2.97;2.00;;;22.10;80.70;;;;;;5052543;28;20228;-68
2022/07/21 05:13:55;;;;;;;4.20;1.73;;;22.20;80.80;;;;;;5050120;28;20586;-68
2022/07/21 05:16:22;;;;;;;3.47;1.40;;;22.30;80.80;;;;;;5050661;28;20210;-68
2022/07/21 05:18:50;;;;;;;1.45;1.35;;;22.30;80.40;;;;;;5038161;28;20214;-68
2022/07/21 05:21:17;;;;;;;3.35;1.55;;;22.40;80.20;;;;;;5047450;28;20210;-68
2022/07/21 05:23:45;;;;;;;4.97;1.70;;;22.40;79.60;;;;;;5042132;28;20220;-68
2022/07/21 05:26:13;;;;;;;1.98;1.55;;;22.50;79.30;;;;;;5046536;28;20222;-67
2022/07/21 05:28:40;;;;;;;6.60;1.50;;;22.50;79.00;;;;;;5043064;28;20210;-68
2022/07/21 05:31:06;;;;;;;3.78;1.63;;;22.50;78.40;;;;;;5048599;28;20201;-68
2022/07/21 05:33:33;;;;;;;2.80;1.60;;;22.60;78.40;;;;;;5053187;28;20210;-69
2022/07/21 05:36:01;;;;;;;2.70;1.35;;;22.60;78.00;;;;;;5053426;28;20205;-68
2022/07/21 05:38:28;;;;;;;2.35;1.33;;;22.60;77.80;;;;;;5053262;28;20217;-69
2022/07/21 05:40:55;;;;;;;2.45;1.88;;;22.70;77.40;;;;;;5053384;28;20206;-69
2022/07/21 05:43:25;;;;;;;3.05;1.80;;;22.70;77.50;;;;;;5047310;28;20209;-69
2022/07/21 05:45:53;;;;;;;1.77;1.30;;;22.80;77.50;;;;;;5058558;28;20198;-68
2022/07/21 05:48:20;;;;;;;2.80;1.40;;;22.90;77.30;;;;;;5055051;28;20722;-68
2022/07/21 05:50:47;;;;;;;3.13;1.42;;;23.00;76.60;;;;;;5050818;28;20202;-68
2022/07/21 05:53:15;;;;;;;2.72;1.35;;;23.00;76.00;;;;;;5050003;28;20226;-69
2022/07/21 05:55:42;;;;;;;3.83;1.30;;;23.00;75.60;;;;;;5043534;28;20207;-68
2022/07/21 05:58:09;;;;;;;2.53;1.35;;;23.10;75.60;;;;;;5044994;28;20209;-67
2022/07/21 06:00:36;;;;;;;3.70;1.35;;;23.10;75.20;;;;;;5056897;28;20214;-67
2022/07/21 06:03:03;;;;;;;2.63;1.55;;;23.20;75.00;;;;;;5055022;28;20209;-67
2022/07/21 06:05:30;;;;;;;1.77;1.20;;;23.20;74.80;;;;;;5057607;28;20213;-69
2022/07/21 06:07:56;;;;;;;1.48;1.38;;;23.20;74.70;;;;;;5051388;28;20202;-74
2022/07/21 06:10:25;;;;;;;3.53;1.30;;;23.30;74.90;;;;;;5053607;28;20617;-67
2022/07/21 06:12:51;;;;;;;2.30;1.33;;;23.30;74.60;;;;;;5055100;28;20228;-67
2022/07/21 06:15:20;;;;;;;2.72;1.38;;;23.40;74.60;;;;;;5054523;28;20206;-66
2022/07/21 06:17:47;;;;;;;4.05;1.85;;;23.50;74.90;;;;;;5050666;28;20206;-67
2022/07/21 06:20:14;;;;;;;1.70;1.50;;;23.50;74.70;;;;;;5056763;28;20206;-66
2022/07/21 06:22:41;;;;;;;2.63;1.33;;;23.60;74.80;;;;;;5054879;28;20241;-66
2022/07/21 06:25:08;;;;;;;6.07;1.88;;;23.70;74.80;;;;;;5053718;28;20256;-66
2022/07/21 06:27:36;;;;;;;2.53;1.63;;;23.70;74.80;;;;;;5048658;28;20206;-66
2022/07/21 06:30:05;;;;;;;1.80;1.60;;;23.80;75.10;;;;;;5053571;28;20289;-68
2022/07/21 06:32:32;;;;;;;1.95;1.70;;;24.00;74.90;;;;;;5052262;28;20704;-67
2022/07/21 06:34:59;;;;;;;4.03;1.30;;;24.10;74.30;;;;;;5049901;28;20301;-67
2022/07/21 06:37:25;;;;;;;4.47;1.70;;;24.10;73.90;;;;;;5055966;28;20244;-68
2022/07/21 06:39:52;;;;;;;4.10;1.58;;;24.10;73.90;;;;;;5042998;28;20217;-68
2022/07/21 06:42:19;;;;;;;5.20;2.20;;;24.20;74.10;;;;;;5053318;28;20293;-68
2022/07/21 06:44:47;;;;;;;2.35;1.40;;;24.20;74.00;;;;;;5046706;28;20206;-68
2022/07/21 06:47:14;;;;;;;1.45;1.35;;;24.30;73.70;;;;;;5052491;28;20226;-68
2022/07/21 06:49:41;;;;;;;3.40;1.85;;;24.40;73.60;;;;;;5045415;28;20206;-67
2022/07/21 06:52:07;;;;;;;3.50;1.90;;;24.50;73.30;;;;;;5047314;28;20226;-67
2022/07/21 06:54:34;;;;;;;3.15;1.65;;;24.60;73.30;;;;;;5046060;28;20214;-73
2022/07/21 06:57:01;;;;;;;1.40;1.30;;;24.60;73.10;;;;;;5046882;28;20202;-67
2022/07/21 06:59:28;;;;;;;1.67;1.10;;;24.70;72.80;;;;;;5057075;28;20726;-68
2022/07/21 07:01:57;;;;;;;4.45;1.75;;;24.80;72.50;;;;;;5042461;28;20213;-65
2022/07/21 07:04:23;;;;;;;3.28;1.60;;;24.80;72.60;;;;;;5049015;28;20255;-66
2022/07/21 07:06:52;;;;;;;4.05;1.88;;;24.90;72.70;;;;;;5053178;28;20275;-66
2022/07/21 07:09:19;;;;;;;3.10;1.40;;;25.00;72.40;;;;;;5049303;28;20301;-68
2022/07/21 07:11:47;;;;;;;2.83;1.50;;;25.00;72.20;;;;;;5051240;28;20553;-69
2022/07/21 07:14:14;;;;;;;3.67;1.33;;;25.10;71.70;;;;;;5046371;28;20226;-67
2022/07/21 07:16:41;;;;;;;4.18;1.77;;;25.10;71.40;;;;;;5053754;28;20206;-66
2022/07/21 07:19:09;;;;;;;3.80;1.42;;;25.10;71.40;;;;;;5054806;28;20283;-68
2022/07/21 07:21:36;;;;;;;4.05;2.05;;;25.20;71.60;;;;;;5052434;28;20214;-67
2022/07/21 07:24:04;;;;;;;2.30;1.60;;;25.30;71.50;;;;;;5054053;28;20264;-65
2022/07/21 07:26:31;;;;;;;1.92;1.65;;;25.40;71.10;;;;;;5052871;28;20716;-67
2022/07/21 07:28:58;;;;;;;1.70;1.23;;;25.50;70.60;;;;;;5049542;28;20233;-67
2022/07/21 07:31:25;;;;;;;1.65;1.40;;;25.60;70.00;;;;;;5055598;28;20197;-68
2022/07/21 07:33:51;;;;;;;3.38;1.50;;;25.60;70.10;;;;;;5056330;28;20229;-69
2022/07/21 07:36:19;;;;;;;2.85;1.35;;;25.70;70.00;;;;;;5056624;28;20309;-68
2022/07/21 07:38:47;;;;;;;2.72;1.73;;;25.80;70.10;;;;;;5042434;28;20228;-68
2022/07/21 07:41:15;;;;;;;2.95;1.60;;;26.00;69.60;;;;;;5051588;28;20248;-69
2022/07/21 07:43:41;;;;;;;3.55;1.70;;;26.10;69.00;;;;;;5052864;28;20206;-68
2022/07/21 07:46:10;;;;;;;2.97;1.38;;;26.20;68.70;;;;;;5053443;28;20238;-67
2022/07/21 07:48:37;;;;;;;4.18;1.67;;;26.30;68.60;;;;;;5054714;28;20209;-67
2022/07/21 07:51:04;;;;;;;2.97;1.27;;;26.40;67.60;;;;;;5046810;28;20217;-65
2022/07/21 07:53:32;;;;;;;4.47;1.50;;;26.40;67.50;;;;;;5040355;28;20678;-68
2022/07/21 07:55:59;;;;;;;2.38;1.30;;;26.50;67.00;;;;;;5050939;28;20202;-68
2022/07/21 07:58:26;;;;;;;5.25;1.20;;;26.50;67.00;;;;;;5053371;28;20202;-67
2022/07/21 08:00:53;;;;;;;3.53;1.48;;;26.50;66.60;;;;;;5042015;28;20213;-67
2022/07/21 08:03:21;;;;;;;3.92;1.48;;;26.60;66.20;;;;;;5036294;28;20210;-68
2022/07/21 08:05:48;;;;;;;3.20;1.98;;;26.60;66.70;;;;;;5039348;28;20225;-68
2022/07/21 08:08:15;;;;;;;6.22;1.73;;;26.70;66.50;;;;;;5039198;28;20654;-69
2022/07/21 08:10:45;;;;;;;1.35;1.25;;;26.80;66.30;;;;;;5041779;28;20659;-67
2022/07/21 08:13:12;;;;;;;2.42;1.42;;;26.90;65.80;;;;;;5040868;28;20716;-67
2022/07/21 08:15:40;;;;;;;5.10;2.20;;;26.90;65.50;;;;;;5046329;28;20198;-69
2022/07/21 08:18:07;;;;;;;1.15;1.10;;;27.00;65.00;;;;;;5047228;28;20202;-68
2022/07/21 08:20:35;;;;;;;2.90;2.03;;;27.00;64.70;;;;;;5043410;28;20233;-69
2022/07/21 08:23:02;;;;;;;2.22;1.63;;;27.00;64.70;;;;;;5044101;28;20194;-66
2022/07/21 08:25:29;;;;;;;3.28;1.30;;;27.00;65.80;;;;;;5042479;28;20752;-69
2022/07/21 08:27:57;;;;;;;3.83;1.25;;;27.10;64.90;;;;;;5051351;28;20202;-68
2022/07/21 08:30:24;;;;;;;2.75;1.50;;;27.20;63.00;;;;;;5040534;28;20210;-69
2022/07/21 08:32:51;;;;;;;1.48;1.30;;;27.30;62.60;;;;;;5050413;28;20252;-69
2022/07/21 08:35:18;;;;;;;3.03;1.50;;;27.40;62.50;;;;;;5051954;28;20201;-70
2022/07/21 08:37:54;;;;;;;4.20;1.75;;;27.50;63.10;;;;;;5052540;28;20228;-68
2022/07/21 08:40:23;;;;;;;3.60;1.20;;;27.60;63.30;;;;;;5053790;28;20576;-69
2022/07/21 08:42:51;;;;;;;2.08;1.50;;;27.70;61.60;;;;;;5052694;28;20671;-70
2022/07/21 08:45:20;;;;;;;2.50;1.33;;;27.70;60.10;;;;;;5056628;28;20206;-71
2022/07/21 08:47:47;;;;;;;2.35;1.13;;;27.70;60.00;;;;;;5051562;28;20257;-70
2022/07/21 08:50:13;;;;;;;13.48;2.30;;;27.80;60.10;;;;;;5044162;28;20202;-71
2022/07/21 08:52:40;;;;;;;19.65;3.08;;;27.80;60.70;;;;;;5054480;28;20233;-69
2022/07/21 08:55:07;;;;;;;2.60;1.00;;;27.80;60.70;;;;;;5039973;28;20526;-70
2022/07/21 08:57:34;;;;;;;5.38;2.03;;;28.00;59.70;;;;;;5055628;28;20210;-70
2022/07/21 09:00:01;;;;;;;6.47;2.15;;;28.10;58.60;;;;;;5055972;28;20214;-70
2022/07/21 09:02:31;;;;;;;3.67;1.90;;;28.20;59.10;;;;;;5047089;28;20202;-69
2022/07/21 09:04:58;;;;;;;2.55;1.30;;;28.30;59.60;;;;;;5052799;28;20670;-70
2022/07/21 09:07:25;;;;;;;0.90;0.90;;;28.50;59.20;;;;;;5055528;28;20212;-69
2022/07/21 09:09:57;;;;;;;2.53;1.50;;;28.60;58.60;;;;;;5043929;28;20304;-70
2022/07/21 09:12:24;;;;;;;4.10;1.50;;;28.60;57.80;;;;;;5055181;28;20206;-68
2022/07/21 09:14:51;;;;;;;3.33;1.40;;;28.70;58.10;;;;;;5056310;28;20209;-69
2022/07/21 09:17:19;;;;;;;2.42;1.25;;;28.90;57.90;;;;;;5054439;28;20304;-70
2022/07/21 09:19:49;;;;;;;29.48;3.83;;;29.20;57.70;;;;;;5052353;28;20213;-69
2022/07/21 09:22:18;;;;;;;2.63;1.52;;;29.40;57.20;;;;;;5047817;28;20588;-70
2022/07/21 09:24:50;;;;;;;1.77;1.10;;;29.60;56.90;;;;;;5050251;28;20202;-70
2022/07/21 09:27:19;;;;;;;2.22;1.15;;;29.90;56.50;;;;;;5051582;28;20202;-70
2022/07/21 09:29:47;;;;;;;3.60;1.27;;;30.00;56.00;;;;;;5053657;28;20677;-70
2022/07/21 09:32:23;;;;;;;5.13;1.50;;;30.10;55.80;;;;;;5048928;28;20202;-70
2022/07/21 09:34:53;;;;;;;3.10;1.67;;;30.20;56.30;;;;;;5050597;28;20201;-69
2022/07/21 09:37:21;;;;;;;2.28;1.40;;;30.20;56.20;;;;;;5053651;28;20206;-70
2022/07/21 09:39:51;;;;;;;1.88;1.30;;;30.20;56.10;;;;;;5055561;28;20525;-70
2022/07/21 09:42:20;;;;;;;2.58;1.30;;;30.40;56.00;;;;;;5036031;28;20274;-69
2022/07/21 09:44:50;;;;;;;3.10;1.10;;;30.50;55.90;;;;;;5047633;28;20231;-69
2022/07/21 09:47:19;;;;;;;5.13;1.30;;;30.60;55.70;;;;;;5053321;28;20284;-70
2022/07/21 09:49:46;;;;;;;1.73;1.20;;;30.80;55.60;;;;;;5055057;28;20527;-69
2022/07/21 09:52:29;;;;;;;2.47;1.33;;;30.90;54.70;;;;;;5042283;28;20677;-69
2022/07/21 09:54:57;;;;;;;3.30;1.35;;;31.00;54.60;;;;;;5046256;28;20210;-69
2022/07/21 09:57:24;;;;;;;1.98;1.45;;;31.20;54.60;;;;;;5050854;28;20228;-70
2022/07/21 09:59:52;;;;;;;3.63;1.15;;;31.20;53.90;;;;;;5044002;28;20220;-69
2022/07/21 10:02:22;;;;;;;2.22;1.38;;;31.40;53.40;;;;;;5052100;28;20214;-70
2022/07/21 10:04:58;;;;;;;3.90;1.52;;;31.50;52.60;;;;;;5044428;28;20571;-69
2022/07/21 10:07:27;;;;;;;2.10;1.00;;;31.70;52.40;;;;;;5055162;28;20209;-69
2022/07/21 10:09:54;;;;;;;2.10;0.93;;;31.90;52.30;;;;;;5049930;28;20220;-70
2022/07/21 10:12:22;;;;;;;2.20;1.38;;;31.90;51.80;;;;;;5054524;28;20206;-69
2022/07/21 10:14:49;;;;;;;4.65;1.55;;;31.90;52.10;;;;;;5054164;28;20226;-69
2022/07/21 10:17:17;;;;;;;2.10;1.40;;;31.90;52.20;;;;;;5053876;28;20276;-69
2022/07/21 10:20:03;;;;;;;2.13;1.40;;;32.10;52.20;;;;;;5040530;28;20209;-69
2022/07/21 10:22:44;;;;;;;5.75;1.30;;;32.20;52.20;;;;;;5042504;28;20209;-69
2022/07/21 10:25:11;;;;;;;4.20;1.45;;;32.30;52.30;;;;;;5051596;28;20297;-70
2022/07/21 10:27:38;;;;;;;3.13;1.25;;;32.40;52.00;;;;;;5052289;28;20213;-69
2022/07/21 10:30:06;;;;;;;2.95;1.20;;;32.40;51.90;;;;;;5053617;28;20293;-69
2022/07/21 10:32:35;;;;;;;4.70;1.42;;;32.50;51.60;;;;;;5057315;28;20229;-69
2022/07/21 10:35:24;;;;;;;2.30;1.55;;;32.60;51.50;;;;;;5056241;28;20237;-69
2022/07/21 10:37:52;;;;;;;2.75;1.50;;;32.70;51.30;;;;;;5045007;28;20206;-69
2022/07/21 10:40:38;;;;;;;2.15;1.48;;;32.90;51.00;;;;;;5054167;28;20665;-68
2022/07/21 10:43:40;;;;;;;5.45;1.20;;;33.00;50.80;;;;;;5055375;28;20210;-71
2022/07/21 10:46:38;;;;;;;3.95;1.10;;;33.00;50.50;;;;;;5057285;28;20628;-69
2022/07/21 10:49:07;;;;;;;4.63;1.30;;;33.10;50.30;;;;;;5051142;28;20578;-68
2022/07/21 10:51:36;;;;;;;4.15;1.42;;;33.00;49.90;;;;;;5047142;28;20217;-68
2022/07/21 10:54:25;;;;;;;3.67;1.23;;;33.10;50.10;;;;;;5054877;28;20264;-68
2022/07/21 10:57:28;;;;;;;2.15;1.27;;;33.20;50.00;;;;;;5050277;28;20251;-68
2022/07/21 11:00:22;;;;;;;3.08;1.67;;;33.40;49.60;;;;;;5047253;28;20209;-68
2022/07/21 11:02:51;;;;;;;2.53;1.40;;;33.30;49.00;;;;;;5042411;28;20210;-69
2022/07/21 11:05:18;;;;;;;4.07;1.60;;;33.30;48.90;;;;;;5045933;28;20207;-69
2022/07/21 11:08:15;;;;;;;3.60;1.50;;;33.20;49.10;;;;;;5056250;28;20213;-69
2022/07/21 11:10:45;;;;;;;3.20;1.60;;;33.30;49.00;;;;;;5048286;28;20210;-69
2022/07/21 11:13:14;;;;;;;4.40;1.38;;;33.40;48.80;;;;;;5056483;28;20294;-69
2022/07/21 11:15:54;;;;;;;1.75;1.52;;;33.30;48.70;;;;;;5054522;28;20285;-70
2022/07/21 11:18:22;;;;;;;6.70;1.35;;;33.40;48.90;;;;;;5055798;28;20201;-69
2022/07/21 11:21:08;;;;;;;3.80;1.20;;;33.60;48.80;;;;;;5041295;28;20214;-69
2022/07/21 11:23:36;;;;;;;1.42;1.33;;;33.80;48.70;;;;;;5055282;28;20202;-69
2022/07/21 11:26:05;;;;;;;3.33;1.50;;;33.80;48.20;;;;;;5054504;28;20267;-69
2022/07/21 11:28:32;;;;;;;4.93;1.75;;;33.90;47.80;;;;;;5056140;28;20237;-69
2022/07/21 11:31:08;;;;;;;2.97;1.40;;;33.90;48.00;;;;;;5054346;28;20205;-69
2022/07/21 11:37:01;;;;;;;4.78;1.50;;;33.70;48.30;;;;;;5055462;28;20592;-69
2022/07/21 11:39:27;;;;;;;1.50;1.40;;;33.60;48.40;;;;;;5056616;28;20554;-70
2022/07/21 11:42:03;;;;;;;5.10;1.50;;;33.60;48.20;;;;;;5048611;28;20210;-69
2022/07/21 11:44:51;;;;;;;1.48;1.38;;;33.70;48.40;;;;;;5045981;28;20206;-70
2022/07/21 11:47:20;;;;;;;5.30;1.70;;;33.80;48.20;;;;;;5054626;28;20234;-71
2022/07/21 11:49:47;;;;;;;2.88;1.67;;;33.90;48.30;;;;;;5055502;28;20202;-69
2022/07/21 11:52:17;;;;;;;3.15;1.73;;;34.00;48.30;;;;;;5041078;28;20210;-69
2022/07/21 11:54:46;;;;;;;4.05;1.52;;;34.10;48.00;;;;;;5041089;28;20229;-70
2022/07/21 11:57:15;;;;;;;4.80;1.63;;;34.20;48.10;;;;;;5050871;28;20293;-70
2022/07/21 11:59:44;;;;;;;6.50;1.73;;;34.40;48.00;;;;;;5054943;28;20233;-69
2022/07/21 12:02:13;;;;;;;3.53;1.50;;;34.40;47.70;;;;;;5054668;28;20210;-69
2022/07/21 12:04:44;;;;;;;6.57;1.80;;;34.60;47.60;;;;;;5047846;28;20211;-69
2022/07/21 12:07:17;;;;;;;4.72;2.00;;;34.70;47.10;;;;;;5040941;28;20207;-69
2022/07/21 12:09:46;;;;;;;6.97;1.60;;;34.60;46.90;;;;;;5054639;28;20586;-69
2022/07/21 12:12:14;;;;;;;2.60;1.55;;;34.50;47.10;;;;;;5044062;28;20654;-68
2022/07/21 12:14:47;;;;;;;21.67;2.88;;;34.40;47.40;;;;;;5056082;28;20668;-69
2022/07/21 12:17:15;;;;;;;3.17;1.38;;;34.30;47.40;;;;;;5056855;28;20267;-69
2022/07/21 12:19:43;;;;;;;4.18;1.58;;;34.30;47.50;;;;;;5055836;28;20206;-69
2022/07/21 12:22:09;;;;;;;3.28;1.60;;;34.20;47.60;;;;;;5056693;28;20222;-69
2022/07/21 12:24:54;;;;;;;5.70;2.42;;;34.20;47.60;;;;;;5042167;28;20206;-70
2022/07/21 12:27:23;;;;;;;6.93;4.18;;;34.20;48.00;;;;;;5051193;28;20213;-69
2022/07/21 12:29:50;;;;;;;4.53;2.10;;;34.40;47.70;;;;;;5054273;28;20209;-70
2022/07/21 12:32:55;;;;;;;5.97;2.20;;;34.50;47.80;;;;;;5054560;28;20233;-69
2022/07/21 12:35:24;;;;;;;5.38;1.70;;;34.50;47.50;;;;;;5050316;28;20222;-70
2022/07/21 12:37:59;;;;;;;5.60;2.00;;;34.60;47.50;;;;;;5045361;28;20206;-69
2022/07/21 12:40:28;;;;;;;5.60;1.77;;;34.70;47.50;;;;;;5053081;28;20198;-68
2022/07/21 12:43:10;;;;;;;5.68;1.65;;;34.80;47.30;;;;;;5053735;28;20297;-69
2022/07/21 12:45:53;;;;;;;5.22;1.88;;;34.80;47.10;;;;;;5054181;28;20209;-69
2022/07/21 12:48:21;;;;;;;5.47;1.77;;;34.80;47.20;;;;;;5054326;28;20248;-69
2022/07/21 12:51:16;;;;;;;4.75;1.60;;;34.90;47.10;;;;;;5054345;28;20229;-69
2022/07/21 12:53:46;;;;;;;4.47;1.77;;;35.10;47.20;;;;;;5053158;28;20678;-69
2022/07/21 12:56:16;;;;;;;6.18;1.95;;;35.00;47.20;;;;;;5048311;28;20205;-69
2022/07/21 12:58:44;;;;;;;3.38;2.03;;;34.90;47.40;;;;;;5048427;28;20214;-69
2022/07/21 13:01:12;;;;;;;5.00;1.90;;;35.00;47.20;;;;;;5047212;28;20205;-68